Abadiania, Brazil
Current Conditions -  °F | °C
As of 1:00 AM on Sunday 25 Jan 2015 (Local Time) from SBAN Reporting Station
Overcast Overcast  
Wind Chill: 64°   Ceiling: 7000
Heat Index: 64°   Visibility: 6mi
Dew Point: 63°   Wind: 9mph
Humidity: 94%   Direction: 70°ENE
Pressure: 30.12"   Gusts: NA
Location:  16.2°S, 48.71°W
Report Text: SBAN 250300Z 07008KT 9999 SCT004 SCT015 FEW030TCU OVC070 18/17 Q1020
Loading
Personal Weather Stations






























Interactive Weather Map New forecast layout! Learn more

10-Day Weather Forecast

Advertisements
Track Severe Weather on mobile